createdAt,value
2023-03-06T00:00:37.492Z,73.02
2023-03-06T00:03:04.287Z,73.97
2023-03-06T00:05:30.684Z,73.38
2023-03-06T00:07:57.149Z,73.56
2023-03-06T00:10:28.198Z,73.67
2023-03-06T00:12:55.772Z,74.18
2023-03-06T00:15:22.942Z,74.37
2023-03-06T00:17:49.240Z,74.69
2023-03-06T00:20:15.847Z,74.97
2023-03-06T00:22:42.313Z,74.07
2023-03-06T00:25:12.510Z,74.20
2023-03-06T00:27:38.775Z,75.17
2023-03-06T00:30:05.758Z,74.94
2023-03-06T00:32:32.131Z,74.77
2023-03-06T00:34:58.478Z,74.45
2023-03-06T00:37:25.449Z,75.33
2023-03-06T00:39:51.867Z,74.91
2023-03-06T00:42:18.903Z,75.00
2023-03-06T00:44:45.507Z,75.55
2023-03-06T00:47:12.285Z,75.73
2023-03-06T00:49:38.544Z,75.94
2023-03-06T00:52:05.220Z,75.83
2023-03-06T00:54:31.543Z,75.90
2023-03-06T00:56:57.875Z,76.25
2023-03-06T00:59:24.210Z,76.06
2023-03-06T01:01:50.621Z,75.51
2023-03-06T01:04:16.956Z,76.28
2023-03-06T01:06:43.291Z,75.70
2023-03-06T01:09:09.575Z,76.22
2023-03-06T01:11:35.854Z,75.90
2023-03-06T01:14:02.111Z,76.05
2023-03-06T01:16:28.660Z,76.65
2023-03-06T01:18:54.958Z,76.29
2023-03-06T01:21:21.232Z,76.13
2023-03-06T01:23:47.601Z,76.53
2023-03-06T01:26:14.105Z,76.63
2023-03-06T01:28:40.825Z,77.49
2023-03-06T01:31:07.646Z,76.80
2023-03-06T01:33:34.575Z,77.06
2023-03-06T01:36:03.911Z,77.65
2023-03-06T01:38:30.220Z,77.24
2023-03-06T01:40:56.562Z,77.19
2023-03-06T01:43:28.836Z,77.91
2023-03-06T01:46:13.618Z,77.33
2023-03-06T01:48:39.938Z,77.66
2023-03-06T01:51:06.415Z,77.40
2023-03-06T01:53:32.820Z,77.97
2023-03-06T01:55:59.156Z,77.78
2023-03-06T01:58:25.481Z,77.94
2023-03-06T02:00:51.805Z,77.53
2023-03-06T02:03:22.541Z,78.17
2023-03-06T02:05:48.863Z,78.33
2023-03-06T02:08:16.914Z,78.58
2023-03-06T02:10:50.054Z,78.68
2023-03-06T02:13:16.414Z,78.38
2023-03-06T02:15:42.681Z,78.83
2023-03-06T02:18:08.961Z,78.88
2023-03-06T02:20:43.514Z,78.97
2023-03-06T02:23:28.369Z,79.18
2023-03-06T02:25:55.254Z,79.26
2023-03-06T02:28:22.585Z,79.31
2023-03-06T02:30:50.265Z,79.21
2023-03-06T02:33:18.467Z,79.60
2023-03-06T02:35:53.151Z,79.72
2023-03-06T02:38:20.951Z,79.68
2023-03-06T02:40:49.555Z,79.31
2023-03-06T02:43:18.195Z,79.32
2023-03-06T02:45:46.155Z,79.38
2023-03-06T02:48:13.208Z,79.64
2023-03-06T02:50:39.954Z,79.86
2023-03-06T02:53:06.681Z,79.45
2023-03-06T02:55:33.785Z,80.17
2023-03-06T02:58:00.254Z,80.10
2023-03-06T03:00:26.887Z,79.89
2023-03-06T03:02:53.835Z,79.86
2023-03-06T03:05:20.186Z,80.29
2023-03-06T03:07:46.611Z,79.88
2023-03-06T03:10:13.811Z,80.29
2023-03-06T03:12:40.420Z,80.06
2023-03-06T03:15:07.037Z,80.22
2023-03-06T03:17:35.689Z,80.11
2023-03-06T03:20:02.381Z,80.09
2023-03-06T03:22:28.691Z,80.14
2023-03-06T03:24:54.982Z,80.14
2023-03-06T03:27:21.339Z,80.44
2023-03-06T03:29:47.629Z,80.26
2023-03-06T03:32:13.962Z,81.17
2023-03-06T03:34:40.234Z,80.68
2023-03-06T03:37:06.523Z,81.16
2023-03-06T03:39:32.892Z,80.74
2023-03-06T03:41:59.316Z,81.00
2023-03-06T03:44:25.617Z,80.85
2023-03-06T03:46:54.168Z,80.97
2023-03-06T03:49:20.448Z,81.34
2023-03-06T03:51:46.705Z,82.11
2023-03-06T03:54:13.062Z,82.26
2023-03-06T03:56:40.648Z,81.42
2023-03-06T03:59:07.412Z,82.45
2023-03-06T04:01:34.060Z,82.21
2023-03-06T04:04:00.395Z,82.21
2023-03-06T04:06:26.738Z,81.86
2023-03-06T04:08:53.220Z,82.79
2023-03-06T04:11:19.715Z,82.25
2023-03-06T04:13:46.081Z,83.19
2023-03-06T04:16:12.440Z,82.80
2023-03-06T04:18:38.854Z,82.83
2023-03-06T04:21:05.425Z,82.36
2023-03-06T04:23:31.832Z,82.42
2023-03-06T04:25:58.187Z,83.88
2023-03-06T04:28:24.837Z,83.65
2023-03-06T04:30:51.161Z,82.94
2023-03-06T04:33:18.178Z,83.61
2023-03-06T04:35:44.564Z,83.05
2023-03-06T04:38:10.852Z,83.20
2023-03-06T04:40:37.208Z,83.56
2023-03-06T04:43:04.235Z,82.63
2023-03-06T04:45:31.376Z,83.95
2023-03-06T04:47:57.737Z,84.08
2023-03-06T04:50:24.900Z,83.60
2023-03-06T04:52:51.687Z,83.73
2023-03-06T04:55:18.502Z,83.62
2023-03-06T04:57:45.485Z,83.18
2023-03-06T05:00:13.974Z,84.24
2023-03-06T05:02:41.790Z,83.31
2023-03-06T05:05:08.346Z,83.43
2023-03-06T05:07:34.693Z,83.90
2023-03-06T05:10:01.116Z,84.16
2023-03-06T05:12:27.435Z,84.41
2023-03-06T05:14:53.780Z,84.42
2023-03-06T05:17:20.044Z,83.77
2023-03-06T05:19:46.376Z,83.32
2023-03-06T05:22:12.682Z,84.48
2023-03-06T05:24:38.992Z,83.23
2023-03-06T05:27:05.342Z,83.22
2023-03-06T05:29:31.614Z,84.05
2023-03-06T05:31:58.875Z,83.50
2023-03-06T05:34:25.290Z,83.52
2023-03-06T05:36:51.733Z,83.64
2023-03-06T05:39:18.045Z,83.59
2023-03-06T05:41:44.319Z,83.27
2023-03-06T05:44:10.606Z,83.51
2023-03-06T05:46:38.024Z,83.09
2023-03-06T05:49:04.346Z,83.26
2023-03-06T05:51:31.485Z,83.35
2023-03-06T05:53:57.904Z,83.68
2023-03-06T05:56:24.247Z,83.73
2023-03-06T05:58:51.581Z,84.19
2023-03-06T06:01:18.949Z,83.78
2023-03-06T06:03:45.289Z,83.51
2023-03-06T06:06:12.352Z,84.22
2023-03-06T06:08:38.788Z,84.87
2023-03-06T06:11:05.647Z,85.95
2023-03-06T06:13:32.045Z,84.42
2023-03-06T06:15:58.371Z,84.35
2023-03-06T06:18:24.753Z,85.19
2023-03-06T06:20:51.245Z,84.20
2023-03-06T06:23:17.657Z,84.44
2023-03-06T06:25:43.974Z,84.29
2023-03-06T06:28:12.356Z,84.59
2023-03-06T06:30:38.862Z,84.51
2023-03-06T06:33:05.163Z,85.03
2023-03-06T06:35:35.377Z,85.36
2023-03-06T06:38:01.638Z,84.45
2023-03-06T06:40:29.570Z,83.71
2023-03-06T06:42:55.950Z,83.42
2023-03-06T06:45:22.269Z,84.22
2023-03-06T06:47:49.977Z,83.87
2023-03-06T06:50:16.408Z,84.09
2023-03-06T06:52:42.735Z,84.08
2023-03-06T06:55:09.286Z,83.99
2023-03-06T06:57:35.614Z,83.12
2023-03-06T07:00:02.034Z,85.27
2023-03-06T07:02:28.431Z,85.52
2023-03-06T07:05:04.162Z,84.60
2023-03-06T07:07:33.435Z,84.83
2023-03-06T07:09:59.721Z,83.54
2023-03-06T07:12:26.123Z,83.64
2023-03-06T07:14:52.422Z,83.77
2023-03-06T07:17:18.707Z,84.08
2023-03-06T07:19:45.048Z,83.17
2023-03-06T07:22:11.683Z,82.01
2023-03-06T07:24:37.980Z,82.25
2023-03-06T07:27:04.251Z,82.13
2023-03-06T07:29:32.779Z,81.37
2023-03-06T07:31:59.197Z,82.10
2023-03-06T07:34:25.540Z,82.46
2023-03-06T07:36:51.953Z,82.24
2023-03-06T07:39:18.275Z,82.35
2023-03-06T07:41:44.681Z,82.30
2023-03-06T07:44:11.009Z,82.31
2023-03-06T07:46:37.434Z,82.81
2023-03-06T07:49:04.031Z,82.58
2023-03-06T07:51:30.370Z,82.81
2023-03-06T07:53:56.742Z,81.47
2023-03-06T07:56:23.124Z,81.42
2023-03-06T07:58:49.420Z,81.45
2023-03-06T08:01:17.562Z,80.81
2023-03-06T08:03:44.345Z,81.75
2023-03-06T08:06:18.238Z,80.93
2023-03-06T08:08:45.374Z,79.02
2023-03-06T08:11:12.668Z,77.87
2023-03-06T08:13:39.307Z,77.65
2023-03-06T08:16:06.057Z,76.72
2023-03-06T08:18:33.140Z,76.81
2023-03-06T08:21:05.737Z,77.15
2023-03-06T08:23:32.880Z,75.86
2023-03-06T08:26:00.209Z,75.49
2023-03-06T08:28:26.953Z,75.41
2023-03-06T08:30:53.849Z,72.86
2023-03-06T08:33:20.193Z,73.08
2023-03-06T08:35:46.499Z,70.88
2023-03-06T08:38:12.952Z,72.54
2023-03-06T08:40:39.292Z,68.71
2023-03-06T08:43:08.443Z,71.65
2023-03-06T08:45:34.835Z,71.83
2023-03-06T08:48:01.335Z,70.29
2023-03-06T08:50:27.641Z,71.49
2023-03-06T08:52:53.926Z,70.68
2023-03-06T08:55:20.248Z,72.55
2023-03-06T08:57:46.568Z,69.53
2023-03-06T09:00:13.712Z,69.49
2023-03-06T09:02:40.101Z,67.94
2023-03-06T09:05:07.897Z,68.69
2023-03-06T09:07:34.930Z,64.73
2023-03-06T09:10:01.376Z,67.51
2023-03-06T09:12:29.266Z,69.16
2023-03-06T09:14:57.110Z,67.95
2023-03-06T09:17:23.564Z,65.98
2023-03-06T09:19:50.910Z,65.95
2023-03-06T09:22:17.219Z,65.60
2023-03-06T09:24:43.536Z,61.73
2023-03-06T09:27:09.797Z,63.03
2023-03-06T09:29:36.078Z,62.10
2023-03-06T09:32:02.463Z,61.83
2023-03-06T09:34:28.869Z,64.49
2023-03-06T09:36:57.194Z,61.10
2023-03-06T09:39:24.570Z,63.06
2023-03-06T09:41:51.314Z,62.58
2023-03-06T09:44:22.710Z,62.62
2023-03-06T09:47:00.567Z,64.47
2023-03-06T09:49:53.205Z,63.52
2023-03-06T09:52:39.921Z,62.56
2023-03-06T09:55:09.381Z,62.05
2023-03-06T09:57:37.156Z,60.01
2023-03-06T10:00:07.210Z,57.73
2023-03-06T10:02:45.620Z,56.14
2023-03-06T10:05:32.238Z,56.40
2023-03-06T10:08:18.831Z,55.84
2023-03-06T10:10:57.593Z,56.41
2023-03-06T10:13:28.138Z,55.40
2023-03-06T10:16:00.287Z,54.13
2023-03-06T10:18:26.592Z,53.01
2023-03-06T10:21:02.620Z,55.58
2023-03-06T10:23:45.757Z,54.55
2023-03-06T10:26:15.612Z,52.70
2023-03-06T10:28:44.603Z,54.34
2023-03-06T10:31:13.662Z,51.36
2023-03-06T10:33:57.336Z,55.87
2023-03-06T10:36:27.762Z,54.41
2023-03-06T10:38:55.088Z,54.61
2023-03-06T10:41:27.179Z,54.35
2023-03-06T10:43:59.733Z,51.38
2023-03-06T10:46:30.950Z,54.55
2023-03-06T10:48:58.979Z,51.68
2023-03-06T10:51:25.890Z,54.70
2023-03-06T10:54:01.315Z,54.27
2023-03-06T10:56:28.175Z,53.41
2023-03-06T10:59:13.049Z,51.35
2023-03-06T11:01:43.616Z,49.52
2023-03-06T11:04:17.442Z,49.06
2023-03-06T11:06:43.797Z,48.87
2023-03-06T11:09:36.494Z,45.68
2023-03-06T11:12:21.501Z,46.48
2023-03-06T11:14:47.802Z,43.93
2023-03-06T11:17:27.107Z,43.46
2023-03-06T11:20:07.295Z,44.18
2023-03-06T11:22:34.758Z,45.89
2023-03-06T11:25:01.464Z,44.75
2023-03-06T11:27:34.429Z,46.27
2023-03-06T11:30:02.301Z,45.08
2023-03-06T11:32:31.042Z,43.14
2023-03-06T11:34:59.344Z,45.25
2023-03-06T11:37:31.774Z,45.51
2023-03-06T11:40:06.625Z,45.46
2023-03-06T11:42:37.621Z,45.05
2023-03-06T11:45:19.162Z,43.43
2023-03-06T11:47:54.591Z,43.60
2023-03-06T11:50:38.532Z,44.18
2023-03-06T11:53:12.108Z,42.66
2023-03-06T11:55:49.207Z,41.95
2023-03-06T11:58:33.780Z,41.88
2023-03-06T12:01:09.058Z,40.72
2023-03-06T12:03:41.123Z,40.50
2023-03-06T12:06:09.648Z,37.15
2023-03-06T12:08:40.011Z,39.55
2023-03-06T12:13:58.644Z,39.79
2023-03-06T12:16:32.409Z,39.69
2023-03-06T12:18:58.726Z,37.77
2023-03-06T12:21:41.834Z,38.31
2023-03-06T12:24:21.489Z,37.01
2023-03-06T12:26:47.746Z,35.72
2023-03-06T12:29:33.415Z,36.57
2023-03-06T12:32:02.585Z,37.01
2023-03-06T12:34:29.033Z,37.86
2023-03-06T12:36:58.330Z,37.76
2023-03-06T12:39:36.446Z,37.13
2023-03-06T12:42:23.269Z,36.33
2023-03-06T12:45:15.852Z,37.29
2023-03-06T12:47:43.392Z,36.89
2023-03-06T12:50:26.985Z,38.12
2023-03-06T12:52:55.146Z,37.34
2023-03-06T12:55:24.930Z,38.11
2023-03-06T12:57:52.654Z,38.63
2023-03-06T13:00:34.134Z,38.62
2023-03-06T13:03:13.537Z,37.49
2023-03-06T13:05:53.121Z,37.62
2023-03-06T13:08:25.461Z,36.80
2023-03-06T13:11:13.383Z,36.44
2023-03-06T13:13:47.015Z,36.04
2023-03-06T13:16:33.679Z,36.18
2023-03-06T13:19:18.950Z,36.46
2023-03-06T13:22:05.570Z,36.44
2023-03-06T13:24:33.114Z,36.64
2023-03-06T13:27:00.848Z,37.38
2023-03-06T13:29:36.508Z,37.83
2023-03-06T13:32:02.942Z,37.30
2023-03-06T13:34:32.076Z,37.10
2023-03-06T13:37:13.375Z,37.52
2023-03-06T13:39:54.733Z,37.97
2023-03-06T13:42:35.259Z,37.30
2023-03-06T13:45:08.918Z,37.59
2023-03-06T13:47:59.057Z,39.00
2023-03-06T13:50:28.557Z,38.64
2023-03-06T13:53:05.104Z,37.92
2023-03-06T13:55:39.973Z,38.18
2023-03-06T13:58:17.261Z,37.45
2023-03-06T14:00:54.256Z,37.59
2023-03-06T14:03:20.630Z,38.90
2023-03-06T14:05:47.984Z,39.46
2023-03-06T14:08:17.170Z,39.46
2023-03-06T14:10:44.830Z,40.07
2023-03-06T14:13:16.299Z,39.77
2023-03-06T14:15:44.656Z,39.26
2023-03-06T14:18:23.719Z,39.69
2023-03-06T14:21:11.931Z,39.81
2023-03-06T14:23:42.502Z,39.00
2023-03-06T14:26:17.550Z,39.66
2023-03-06T14:28:45.836Z,39.60
2023-03-06T14:31:15.996Z,39.71
2023-03-06T14:33:43.620Z,39.51
2023-03-06T14:36:14.903Z,39.54
2023-03-06T14:38:47.982Z,40.44
2023-03-06T14:41:22.103Z,40.70
2023-03-06T14:43:48.389Z,40.89
2023-03-06T14:46:19.041Z,41.45
2023-03-06T14:48:46.127Z,41.30
2023-03-06T14:51:18.597Z,41.92
2023-03-06T14:53:46.284Z,41.68
2023-03-06T14:56:19.912Z,42.10
2023-03-06T14:58:55.392Z,42.88
2023-03-06T15:01:26.358Z,42.99
2023-03-06T15:03:55.413Z,43.22
2023-03-06T15:06:27.276Z,43.88
2023-03-06T15:09:02.416Z,44.34
2023-03-06T15:11:48.609Z,44.79
2023-03-06T15:14:18.005Z,45.72
2023-03-06T15:16:44.403Z,45.83
2023-03-06T15:19:23.164Z,46.26
2023-03-06T15:21:51.052Z,47.69
2023-03-06T15:24:30.680Z,49.43
2023-03-06T15:26:59.910Z,51.93
2023-03-06T15:29:27.208Z,55.12
2023-03-06T15:32:12.093Z,59.18
2023-03-06T15:34:38.449Z,61.69
2023-03-06T15:37:19.065Z,62.05
2023-03-06T15:39:46.488Z,63.85
2023-03-06T15:42:15.788Z,64.55
2023-03-06T15:44:42.356Z,65.34
2023-03-06T15:47:11.957Z,67.23
2023-03-06T15:49:39.035Z,66.03
2023-03-06T15:52:06.387Z,65.90
2023-03-06T15:54:33.200Z,68.02
2023-03-06T15:56:59.880Z,68.60
2023-03-06T15:59:27.975Z,68.44
2023-03-06T16:01:54.431Z,69.89
2023-03-06T16:04:20.726Z,69.81
2023-03-06T16:06:47.142Z,70.54
2023-03-06T16:09:13.614Z,70.87
2023-03-06T16:11:44.755Z,70.84
2023-03-06T16:14:23.525Z,71.41
2023-03-06T16:16:51.152Z,71.53
2023-03-06T16:19:25.988Z,71.28
2023-03-06T16:21:53.491Z,71.15
2023-03-06T16:24:19.824Z,71.62
2023-03-06T16:26:52.940Z,71.88
2023-03-06T16:29:20.165Z,71.95
2023-03-06T16:31:46.655Z,72.35
2023-03-06T16:34:13.152Z,72.17
2023-03-06T16:36:39.551Z,72.08
2023-03-06T16:39:06.521Z,72.28
2023-03-06T16:41:32.861Z,72.57
2023-03-06T16:43:59.158Z,71.98
2023-03-06T16:46:25.590Z,72.04
2023-03-06T16:48:52.699Z,72.90
2023-03-06T16:51:20.229Z,72.01
2023-03-06T16:53:47.058Z,71.99
2023-03-06T16:56:14.648Z,72.50
2023-03-06T16:58:41.459Z,72.88
2023-03-06T17:01:08.645Z,72.85
2023-03-06T17:03:35.076Z,73.29
2023-03-06T17:06:01.350Z,72.30
2023-03-06T17:08:27.720Z,73.09
2023-03-06T17:10:54.085Z,72.80
2023-03-06T17:13:20.446Z,73.32
2023-03-06T17:15:56.373Z,73.15
2023-03-06T17:18:24.331Z,72.30
2023-03-06T17:20:51.696Z,72.65
2023-03-06T17:23:18.630Z,73.18
2023-03-06T17:25:45.118Z,73.13
2023-03-06T17:28:11.565Z,72.97
2023-03-06T17:30:37.936Z,73.07
2023-03-06T17:33:04.283Z,73.10
2023-03-06T17:35:30.759Z,73.42
2023-03-06T17:37:57.418Z,73.80
2023-03-06T17:40:23.871Z,73.77
2023-03-06T17:42:51.155Z,74.92
2023-03-06T17:45:17.479Z,74.38
2023-03-06T17:47:43.853Z,73.94
2023-03-06T17:50:10.400Z,74.35
2023-03-06T17:52:37.379Z,75.18
2023-03-06T17:55:03.766Z,74.82
2023-03-06T17:57:30.083Z,76.03
2023-03-06T17:59:56.783Z,75.46
2023-03-06T18:02:23.134Z,75.55
2023-03-06T18:04:50.149Z,76.71
2023-03-06T18:07:16.679Z,75.82
2023-03-06T18:09:43.194Z,76.58
2023-03-06T18:12:09.565Z,76.40
2023-03-06T18:14:37.047Z,76.72
2023-03-06T18:17:03.599Z,76.02
2023-03-06T18:19:29.892Z,76.62
2023-03-06T18:21:56.239Z,77.54
2023-03-06T18:24:23.436Z,78.19
2023-03-06T18:26:49.833Z,77.70
2023-03-06T18:29:16.173Z,78.45
2023-03-06T18:31:42.874Z,78.98
2023-03-06T18:34:11.006Z,79.27
2023-03-06T18:36:37.711Z,79.37
2023-03-06T18:39:06.174Z,78.75
2023-03-06T18:41:32.585Z,80.18
2023-03-06T18:43:59.776Z,80.87
2023-03-06T18:46:28.986Z,81.66
2023-03-06T18:48:55.295Z,80.83
2023-03-06T18:51:21.696Z,80.82
2023-03-06T18:53:48.065Z,81.21
2023-03-06T18:56:16.737Z,80.95
2023-03-06T18:58:43.541Z,82.05
2023-03-06T19:01:09.926Z,81.58
2023-03-06T19:03:36.353Z,81.78
2023-03-06T19:06:07.171Z,81.48
2023-03-06T19:08:34.127Z,81.49
2023-03-06T19:11:05.010Z,82.69
2023-03-06T19:13:31.715Z,81.65
2023-03-06T19:15:58.066Z,82.64
2023-03-06T19:18:25.115Z,81.89
2023-03-06T19:20:52.678Z,81.92
2023-03-06T19:23:19.294Z,82.09
2023-03-06T19:25:55.303Z,81.97
2023-03-06T19:28:21.608Z,82.20
2023-03-06T19:30:47.871Z,81.53
2023-03-06T19:33:15.486Z,82.11
2023-03-06T19:35:41.805Z,82.06
2023-03-06T19:38:09.884Z,81.17
2023-03-06T19:40:36.562Z,81.40
2023-03-06T19:43:03.099Z,82.31
2023-03-06T19:45:29.418Z,81.95
2023-03-06T19:48:00.623Z,81.53
2023-03-06T19:50:29.581Z,81.89
2023-03-06T19:52:56.989Z,81.83
2023-03-06T19:55:28.484Z,81.74
2023-03-06T19:57:54.812Z,81.79
2023-03-06T20:00:21.216Z,82.49
2023-03-06T20:02:47.529Z,81.81
2023-03-06T20:05:13.860Z,82.49
2023-03-06T20:07:40.180Z,81.88
2023-03-06T20:10:07.404Z,82.29
2023-03-06T20:12:35.970Z,81.95
2023-03-06T20:15:02.617Z,81.72
2023-03-06T20:17:28.874Z,82.68
2023-03-06T20:19:55.374Z,83.33
2023-03-06T20:22:21.706Z,82.74
2023-03-06T20:24:48.014Z,82.53
2023-03-06T20:27:14.326Z,83.24
2023-03-06T20:29:44.574Z,82.84
2023-03-06T20:32:11.894Z,83.44
2023-03-06T20:34:39.003Z,84.00
2023-03-06T20:37:06.110Z,84.51
2023-03-06T20:39:32.709Z,84.10
2023-03-06T20:42:00.046Z,84.23
2023-03-06T20:44:26.803Z,83.92
2023-03-06T20:46:53.157Z,84.77
2023-03-06T20:49:19.501Z,83.69
2023-03-06T20:51:45.752Z,84.13
2023-03-06T20:54:13.072Z,84.41
2023-03-06T20:56:40.953Z,84.10
2023-03-06T20:59:08.294Z,85.10
2023-03-06T21:01:36.241Z,85.12
2023-03-06T21:04:04.463Z,84.92
2023-03-06T21:06:31.844Z,84.57
2023-03-06T21:08:58.897Z,84.79
2023-03-06T21:11:25.707Z,84.56
2023-03-06T21:13:52.587Z,84.73
2023-03-06T21:16:19.745Z,85.22
2023-03-06T21:18:46.454Z,85.46
2023-03-06T21:21:14.495Z,85.00
2023-03-06T21:23:40.960Z,85.89
2023-03-06T21:26:07.261Z,85.53
2023-03-06T21:28:33.673Z,85.85
2023-03-06T21:31:02.383Z,85.50
2023-03-06T21:33:28.766Z,85.36
2023-03-06T21:35:55.111Z,85.79
2023-03-06T21:38:21.369Z,85.48
2023-03-06T21:40:47.664Z,85.93
2023-03-06T21:43:15.713Z,86.15
2023-03-06T21:45:45.874Z,86.01
2023-03-06T21:48:12.836Z,85.79
2023-03-06T21:50:39.558Z,86.34
2023-03-06T21:53:05.906Z,85.89
2023-03-06T21:55:32.213Z,86.37
2023-03-06T21:57:58.619Z,87.01
2023-03-06T22:00:25.755Z,87.10
2023-03-06T22:02:52.531Z,87.72
2023-03-06T22:05:21.288Z,87.60
2023-03-06T22:07:48.788Z,87.44
2023-03-06T22:10:15.884Z,88.10
2023-03-06T22:12:42.145Z,87.56
2023-03-06T22:15:09.549Z,87.67
2023-03-06T22:17:35.927Z,87.72
2023-03-06T22:20:02.341Z,87.69
2023-03-06T22:22:28.667Z,88.17
2023-03-06T22:24:58.010Z,88.28
2023-03-06T22:27:24.386Z,87.89
2023-03-06T22:29:50.701Z,87.79
2023-03-06T22:32:17.110Z,87.70
2023-03-06T22:34:43.434Z,87.95
2023-03-06T22:37:09.722Z,87.95
2023-03-06T22:39:36.048Z,88.20
2023-03-06T22:42:02.385Z,88.07
2023-03-06T22:44:28.684Z,87.81
2023-03-06T22:46:55.127Z,87.97
2023-03-06T22:49:21.473Z,87.78
2023-03-06T22:51:47.801Z,87.91
2023-03-06T22:54:14.094Z,88.14
2023-03-06T22:56:40.622Z,88.17
2023-03-06T22:59:06.931Z,87.83
2023-03-06T23:01:33.944Z,87.56
2023-03-06T23:04:02.191Z,87.57
2023-03-06T23:06:46.968Z,87.03
2023-03-06T23:09:15.838Z,87.58
2023-03-06T23:11:42.396Z,87.14
2023-03-06T23:14:11.990Z,86.63
2023-03-06T23:16:38.607Z,86.81
2023-03-06T23:19:05.590Z,86.80
2023-03-06T23:21:32.217Z,86.48
2023-03-06T23:23:58.941Z,86.58
2023-03-06T23:26:26.674Z,86.49
2023-03-06T23:28:53.177Z,86.30
2023-03-06T23:31:22.953Z,86.21
2023-03-06T23:33:49.578Z,86.37
2023-03-06T23:36:17.165Z,86.62
2023-03-06T23:38:43.749Z,86.48
2023-03-06T23:41:14.369Z,86.70
2023-03-06T23:43:40.810Z,86.62
2023-03-06T23:46:07.465Z,87.06
2023-03-06T23:48:36.388Z,87.30
2023-03-06T23:51:07.363Z,88.06
2023-03-06T23:53:33.688Z,87.97
2023-03-06T23:56:00.024Z,88.10
2023-03-06T23:58:26.363Z,87.65
